createdAt,value
2022-08-05T00:00:19.579Z,58.83
2022-08-05T00:02:51.639Z,58.18
2022-08-05T00:06:02.844Z,58.07
2022-08-05T00:08:33.062Z,58.61
2022-08-05T00:11:00.962Z,59.13
2022-08-05T00:13:39.111Z,59.29
2022-08-05T00:16:12.859Z,58.29
2022-08-05T00:18:45.505Z,57.96
2022-08-05T00:21:14.717Z,58.16
2022-08-05T00:23:46.681Z,58.51
2022-08-05T00:26:21.980Z,59.57
2022-08-05T00:28:50.132Z,59.38
2022-08-05T00:31:54.265Z,59.01
2022-08-05T00:34:55.332Z,58.61
2022-08-05T00:37:13.127Z,58.77
2022-08-05T00:39:57.418Z,59.34
2022-08-05T00:42:34.809Z,60.03
2022-08-05T00:45:02.612Z,59.95
2022-08-05T00:47:53.350Z,58.80
2022-08-05T00:50:17.967Z,58.55
2022-08-05T00:52:45.472Z,59.01
2022-08-05T00:55:14.973Z,59.56
2022-08-05T00:57:57.832Z,60.24
2022-08-05T01:00:27.921Z,59.18
2022-08-05T01:02:56.895Z,58.63
2022-08-05T01:05:27.376Z,58.31
2022-08-05T01:08:40.455Z,58.70
2022-08-05T01:11:03.672Z,59.44
2022-08-05T01:13:58.241Z,59.64
2022-08-05T01:16:31.021Z,59.15
2022-08-05T01:19:36.804Z,58.92
2022-08-05T01:22:18.820Z,58.98
2022-08-05T01:24:51.172Z,59.74
2022-08-05T01:27:37.369Z,60.46
2022-08-05T01:30:34.609Z,59.90
2022-08-05T01:33:08.362Z,59.37
2022-08-05T01:35:51.259Z,59.63
2022-08-05T01:38:27.016Z,59.70
2022-08-05T01:40:59.867Z,60.72
2022-08-05T01:43:29.921Z,60.68
2022-08-05T01:45:58.892Z,60.00
2022-08-05T01:48:37.097Z,59.76
2022-08-05T01:51:12.377Z,59.54
2022-08-05T01:53:57.327Z,59.53
2022-08-05T01:58:12.154Z,60.51
2022-08-05T01:59:28.090Z,59.97
2022-08-05T02:02:00.203Z,58.75
2022-08-05T02:04:31.013Z,58.77
2022-08-05T02:06:59.387Z,58.73
2022-08-05T02:09:28.154Z,59.39
2022-08-05T02:12:17.395Z,59.21
2022-08-05T02:14:53.967Z,59.03
2022-08-05T02:18:32.402Z,59.01
2022-08-05T02:20:44.484Z,59.47
2022-08-05T02:23:16.346Z,60.48
2022-08-05T02:25:49.980Z,60.38
2022-08-05T02:28:28.874Z,59.15
2022-08-05T02:31:14.857Z,59.26
2022-08-05T02:33:48.767Z,59.44
2022-08-05T02:36:27.537Z,60.11
2022-08-05T02:38:57.721Z,60.24
2022-08-05T02:41:28.982Z,59.54
2022-08-05T02:44:13.557Z,59.27
2022-08-05T02:46:53.484Z,59.31
2022-08-05T02:49:37.095Z,60.18
2022-08-05T02:52:13.583Z,60.23
2022-08-05T02:54:54.439Z,59.40
2022-08-05T02:58:11.547Z,59.33
2022-08-05T03:00:14.968Z,59.24
2022-08-05T03:02:44.772Z,59.78
2022-08-05T03:05:14.271Z,60.05
2022-08-05T03:08:04.379Z,58.98
2022-08-05T03:10:31.199Z,58.61
2022-08-05T03:15:24.685Z,58.97
2022-08-05T03:17:58.077Z,59.74
2022-08-05T03:20:27.106Z,59.97
2022-08-05T03:22:57.146Z,59.08
2022-08-05T03:25:33.533Z,58.59
2022-08-05T03:28:15.190Z,58.64
2022-08-05T03:30:48.578Z,58.94
2022-08-05T03:33:17.429Z,59.46
2022-08-05T03:35:47.079Z,59.78
2022-08-05T03:38:15.252Z,58.96
2022-08-05T03:40:45.343Z,58.56
2022-08-05T03:44:09.365Z,58.68
2022-08-05T03:46:05.540Z,60.16
2022-08-05T03:48:36.809Z,60.38
2022-08-05T03:52:38.697Z,60.68
2022-08-05T03:55:53.477Z,59.63
2022-08-05T03:57:16.374Z,59.19
2022-08-05T03:59:56.005Z,59.18
2022-08-05T04:02:37.704Z,59.80
2022-08-05T04:05:10.039Z,59.90
2022-08-05T04:07:52.885Z,60.24
2022-08-05T04:10:28.333Z,59.71
2022-08-05T04:13:00.414Z,59.29
2022-08-05T04:15:33.165Z,59.19
2022-08-05T04:18:09.329Z,59.61
2022-08-05T04:20:36.793Z,60.16
2022-08-05T04:23:04.186Z,59.69
2022-08-05T04:25:56.715Z,59.32
2022-08-05T04:28:20.566Z,58.96
2022-08-05T04:30:58.366Z,59.81
2022-08-05T04:33:54.574Z,59.70
2022-08-05T04:36:45.729Z,59.76
2022-08-05T04:39:05.709Z,59.10
2022-08-05T04:41:37.744Z,59.56
2022-08-05T04:44:09.107Z,60.82
2022-08-05T04:46:40.552Z,60.46
2022-08-05T04:49:12.420Z,59.59
2022-08-05T04:51:44.223Z,58.73
2022-08-05T04:54:12.002Z,58.63
2022-08-05T04:56:40.249Z,58.93
2022-08-05T04:59:21.964Z,59.17
2022-08-05T05:02:34.918Z,59.01
2022-08-05T05:04:47.537Z,58.48
2022-08-05T05:07:17.580Z,58.33
2022-08-05T05:09:45.933Z,58.04
2022-08-05T05:12:13.182Z,58.83
2022-08-05T05:14:49.375Z,59.77
2022-08-05T05:17:23.703Z,59.61
2022-08-05T05:19:56.507Z,59.10
2022-08-05T05:22:26.568Z,58.50
2022-08-05T05:24:57.214Z,58.65
2022-08-05T05:27:44.750Z,59.09
2022-08-05T05:30:29.123Z,59.77
2022-08-05T05:33:00.446Z,59.29
2022-08-05T05:35:37.947Z,59.01
2022-08-05T05:38:08.926Z,58.79
2022-08-05T05:40:37.029Z,59.03
2022-08-05T05:43:04.787Z,59.82
2022-08-05T05:45:36.035Z,60.07
2022-08-05T05:48:08.358Z,59.48
2022-08-05T05:50:41.079Z,59.81
2022-08-05T05:53:22.617Z,59.73
2022-08-05T05:55:51.872Z,60.14
2022-08-05T05:58:31.450Z,60.40
2022-08-05T06:01:13.012Z,59.84
2022-08-05T06:04:00.903Z,60.33
2022-08-05T06:06:31.010Z,59.89
2022-08-05T06:08:59.027Z,60.77
2022-08-05T06:11:26.688Z,61.63
2022-08-05T06:13:57.014Z,60.96
2022-08-05T06:16:29.864Z,60.87
2022-08-05T06:19:01.852Z,60.52
2022-08-05T06:21:36.645Z,61.07
2022-08-05T06:24:11.458Z,60.66
2022-08-05T06:26:51.518Z,59.12
2022-08-05T06:29:44.291Z,58.64
2022-08-05T06:32:25.494Z,59.39
2022-08-05T06:34:58.670Z,60.23
2022-08-05T06:37:56.321Z,59.63
2022-08-05T06:40:20.790Z,58.35
2022-08-05T06:42:52.736Z,57.05
2022-08-05T06:45:43.893Z,56.63
2022-08-05T06:48:36.023Z,56.66
2022-08-05T06:50:56.042Z,57.17
2022-08-05T06:53:28.303Z,56.49
2022-08-05T06:55:59.060Z,55.79
2022-08-05T06:58:35.460Z,55.56
2022-08-05T07:01:06.206Z,55.95
2022-08-05T07:03:34.569Z,56.49
2022-08-05T07:06:06.045Z,57.01
2022-08-05T07:08:47.649Z,54.55
2022-08-05T07:11:22.591Z,54.17
2022-08-05T07:14:20.064Z,53.77
2022-08-05T07:17:58.980Z,52.98
2022-08-05T07:22:29.844Z,53.83
2022-08-05T07:24:59.361Z,53.80
2022-08-05T07:27:27.719Z,53.27
2022-08-05T07:30:28.417Z,52.01
2022-08-05T07:32:58.065Z,52.02
2022-08-05T07:36:04.062Z,51.93
2022-08-05T07:38:32.370Z,52.46
2022-08-05T07:41:04.549Z,53.49
2022-08-05T07:43:44.461Z,53.49
2022-08-05T07:46:25.063Z,52.32
2022-08-05T07:49:02.346Z,51.73
2022-08-05T07:51:36.797Z,51.89
2022-08-05T07:54:10.162Z,52.18
2022-08-05T07:57:02.057Z,53.15
2022-08-05T07:59:38.160Z,53.83
2022-08-05T08:02:15.601Z,53.04
2022-08-05T08:04:47.689Z,52.45
2022-08-05T08:07:22.509Z,52.34
2022-08-05T08:09:53.124Z,52.75
2022-08-05T08:12:37.025Z,53.04
2022-08-05T08:15:13.972Z,52.82
2022-08-05T08:17:52.295Z,53.06
2022-08-05T08:20:44.242Z,53.68
2022-08-05T08:24:02.164Z,51.83
2022-08-05T08:26:02.793Z,50.79
2022-08-05T08:28:37.106Z,50.98
2022-08-05T08:31:18.419Z,50.95
2022-08-05T08:33:46.877Z,51.34
2022-08-05T08:36:39.009Z,51.84
2022-08-05T08:39:15.470Z,52.16
2022-08-05T08:41:52.259Z,52.07
2022-08-05T08:45:23.433Z,50.90
2022-08-05T08:48:05.651Z,50.03
2022-08-05T08:50:29.808Z,49.71
2022-08-05T08:53:08.129Z,50.08
2022-08-05T08:56:03.919Z,50.27
2022-08-05T08:58:43.132Z,49.99
2022-08-05T09:01:16.745Z,50.28
2022-08-05T09:03:54.450Z,50.35
2022-08-05T09:06:28.138Z,50.62
2022-08-05T09:08:59.841Z,48.96
2022-08-05T09:11:51.911Z,48.54
2022-08-05T09:14:59.203Z,47.51
2022-08-05T09:17:05.501Z,47.86
2022-08-05T09:20:01.712Z,47.72
2022-08-05T09:22:31.998Z,47.96
2022-08-05T09:25:13.922Z,48.43
2022-08-05T09:28:05.690Z,48.45
2022-08-05T09:30:35.205Z,48.35
2022-08-05T09:33:05.023Z,48.46
2022-08-05T09:35:32.795Z,48.67
2022-08-05T09:38:12.391Z,47.65
2022-08-05T09:40:53.709Z,46.68
2022-08-05T09:43:41.822Z,46.98
2022-08-05T09:46:29.269Z,46.61
2022-08-05T09:49:06.790Z,47.25
2022-08-05T09:51:42.394Z,47.56
2022-08-05T09:54:10.006Z,48.03
2022-08-05T09:56:51.861Z,48.31
2022-08-05T09:59:24.545Z,48.41
2022-08-05T10:01:57.851Z,48.30
2022-08-05T10:04:38.653Z,48.63
2022-08-05T10:07:20.984Z,48.76
2022-08-05T10:10:04.372Z,48.24
2022-08-05T10:12:52.382Z,47.72
2022-08-05T10:15:35.200Z,47.62
2022-08-05T10:18:19.892Z,47.36
2022-08-05T10:20:54.586Z,47.39
2022-08-05T10:23:55.865Z,47.32
2022-08-05T10:26:15.107Z,47.58
2022-08-05T10:28:45.089Z,48.01
2022-08-05T10:32:48.044Z,48.36
2022-08-05T10:34:07.100Z,48.67
2022-08-05T10:36:36.885Z,49.61
2022-08-05T10:39:24.363Z,49.81
2022-08-05T10:42:18.717Z,49.03
2022-08-05T10:44:59.868Z,47.52
2022-08-05T10:47:36.912Z,47.32
2022-08-05T10:50:20.631Z,46.98
2022-08-05T10:53:01.756Z,48.05
2022-08-05T10:55:32.874Z,48.29
2022-08-05T10:58:20.766Z,48.11
2022-08-05T11:00:48.552Z,47.72
2022-08-05T11:03:26.366Z,47.10
2022-08-05T11:06:30.902Z,47.32
2022-08-05T11:09:17.646Z,46.10
2022-08-05T11:11:52.641Z,44.89
2022-08-05T11:14:37.289Z,44.83
2022-08-05T11:18:09.470Z,44.30
2022-08-05T11:20:47.824Z,44.37
2022-08-05T11:23:33.538Z,44.16
2022-08-05T11:26:28.690Z,44.88
2022-08-05T11:29:06.824Z,45.49
2022-08-05T11:31:57.537Z,45.43
2022-08-05T11:34:38.955Z,45.31
2022-08-05T11:38:30.912Z,46.11
2022-08-05T11:39:55.419Z,46.44
2022-08-05T11:42:28.599Z,46.13
2022-08-05T11:45:05.640Z,46.71
2022-08-05T11:47:49.831Z,46.81
2022-08-05T11:50:18.477Z,46.41
2022-08-05T11:52:48.769Z,46.62
2022-08-05T11:55:17.545Z,46.19
2022-08-05T11:58:10.062Z,46.30
2022-08-05T12:00:38.146Z,46.01
2022-08-05T12:03:23.727Z,45.97
2022-08-05T12:06:03.241Z,46.23
2022-08-05T12:08:33.832Z,46.23
2022-08-05T12:11:05.795Z,46.57
2022-08-05T12:13:48.954Z,46.61
2022-08-05T12:16:27.033Z,46.17
2022-08-05T12:18:54.974Z,46.30
2022-08-05T12:21:24.168Z,46.49
2022-08-05T12:24:06.730Z,46.51
2022-08-05T12:26:44.308Z,47.27
2022-08-05T12:29:26.582Z,46.80
2022-08-05T12:31:56.448Z,45.88
2022-08-05T12:34:30.186Z,45.68
2022-08-05T12:37:03.304Z,45.02
2022-08-05T12:39:37.321Z,45.13
2022-08-05T12:42:14.388Z,45.32
2022-08-05T12:44:44.829Z,46.21
2022-08-05T12:47:17.186Z,46.20
2022-08-05T12:50:04.139Z,45.76
2022-08-05T12:52:41.881Z,45.86
2022-08-05T12:55:23.560Z,45.91
2022-08-05T12:58:38.291Z,45.86
2022-08-05T13:02:03.287Z,45.71
2022-08-05T13:03:33.011Z,45.45
2022-08-05T13:06:01.849Z,45.37
2022-08-05T13:08:32.487Z,45.08
2022-08-05T13:11:04.123Z,44.60
2022-08-05T13:14:05.887Z,44.40
2022-08-05T13:16:20.447Z,43.99
2022-08-05T13:18:58.595Z,44.17
2022-08-05T13:23:50.815Z,44.75
2022-08-05T13:26:22.872Z,43.93
2022-08-05T13:28:57.502Z,43.08
2022-08-05T13:32:03.320Z,42.78
2022-08-05T13:34:23.189Z,42.43
2022-08-05T13:36:54.171Z,42.16
2022-08-05T13:40:12.782Z,42.33
2022-08-05T13:42:14.703Z,41.85
2022-08-05T13:44:46.349Z,41.86
2022-08-05T13:47:35.419Z,41.55
2022-08-05T13:50:09.555Z,41.77
2022-08-05T13:52:39.681Z,41.92
2022-08-05T13:55:09.798Z,42.25
2022-08-05T13:57:51.173Z,42.84
2022-08-05T14:00:27.205Z,42.47
2022-08-05T14:02:57.033Z,42.33
2022-08-05T14:05:48.253Z,42.14
2022-08-05T14:08:21.188Z,42.44
2022-08-05T14:10:59.610Z,42.18
2022-08-05T14:13:32.175Z,42.72
2022-08-05T14:16:08.431Z,43.01
2022-08-05T14:18:38.274Z,43.11
2022-08-05T14:22:08.712Z,43.28
2022-08-05T14:23:52.848Z,43.34
2022-08-05T14:26:35.510Z,43.20
2022-08-05T14:29:06.195Z,43.46
2022-08-05T14:32:03.726Z,43.23
2022-08-05T14:34:35.514Z,43.65
2022-08-05T14:37:05.121Z,43.59
2022-08-05T14:39:49.343Z,43.73
2022-08-05T14:42:20.975Z,43.46
2022-08-05T14:44:49.550Z,43.34
2022-08-05T14:47:58.437Z,43.35
2022-08-05T14:50:14.203Z,43.42
2022-08-05T14:52:52.969Z,43.62
2022-08-05T14:55:21.161Z,43.84
2022-08-05T14:57:54.351Z,44.02
2022-08-05T15:00:25.249Z,43.97
2022-08-05T15:02:55.841Z,43.69
2022-08-05T15:05:29.769Z,43.94
2022-08-05T15:08:06.697Z,44.08
2022-08-05T15:10:46.108Z,43.84
2022-08-05T15:13:14.346Z,43.94
2022-08-05T15:15:54.929Z,44.10
2022-08-05T15:18:25.266Z,44.13
2022-08-05T15:20:52.519Z,43.69
2022-08-05T15:23:19.978Z,43.36
2022-08-05T15:25:52.712Z,42.97
2022-08-05T15:28:27.171Z,42.64
2022-08-05T15:30:55.760Z,42.39
2022-08-05T15:33:56.923Z,42.57
2022-08-05T15:36:17.791Z,42.42
2022-08-05T15:41:02.131Z,42.75
2022-08-05T15:41:58.583Z,42.51
2022-08-05T15:44:30.833Z,42.80
2022-08-05T15:47:01.193Z,43.28
2022-08-05T15:49:48.229Z,43.94
2022-08-05T15:52:28.953Z,43.47
2022-08-05T15:55:05.739Z,44.21
2022-08-05T15:57:35.359Z,45.50
2022-08-05T16:00:05.022Z,46.27
2022-08-05T16:02:32.897Z,46.78
2022-08-05T16:05:00.497Z,46.85
2022-08-05T16:07:29.628Z,47.04
2022-08-05T16:09:57.355Z,47.18
2022-08-05T16:12:24.771Z,47.19
2022-08-05T16:14:52.676Z,46.88
2022-08-05T16:17:19.930Z,46.77
2022-08-05T16:20:04.737Z,46.48
2022-08-05T16:22:34.718Z,45.93
2022-08-05T16:25:05.425Z,45.72
2022-08-05T16:28:00.220Z,45.23
2022-08-05T16:30:28.641Z,45.08
2022-08-05T16:32:57.907Z,44.57
2022-08-05T16:35:28.446Z,44.78
2022-08-05T16:38:13.689Z,44.86
2022-08-05T16:40:51.739Z,45.05
2022-08-05T16:43:27.376Z,44.88
2022-08-05T16:46:05.334Z,45.08
2022-08-05T16:48:38.769Z,45.31
2022-08-05T16:51:10.052Z,45.23
2022-08-05T16:54:04.147Z,45.59
2022-08-05T16:56:30.670Z,45.27
2022-08-05T16:58:58.916Z,45.45
2022-08-05T17:01:52.838Z,45.69
2022-08-05T17:04:15.744Z,45.89
2022-08-05T17:06:46.114Z,45.89
2022-08-05T17:09:21.301Z,45.37
2022-08-05T17:11:56.036Z,45.41
2022-08-05T17:14:36.720Z,44.96
2022-08-05T17:17:14.545Z,44.48
2022-08-05T17:19:45.699Z,44.94
2022-08-05T17:22:24.561Z,44.99
2022-08-05T17:24:57.053Z,45.01
2022-08-05T17:27:33.902Z,45.47
2022-08-05T17:30:03.019Z,46.52
2022-08-05T17:32:32.212Z,47.05
2022-08-05T17:35:02.229Z,47.61
2022-08-05T17:37:41.791Z,47.97
2022-08-05T17:40:15.922Z,48.95
2022-08-05T17:42:50.776Z,49.60
2022-08-05T17:45:21.890Z,49.01
2022-08-05T17:47:55.041Z,48.60
2022-08-05T17:50:30.396Z,48.39
2022-08-05T17:53:00.383Z,48.10
2022-08-05T17:55:34.318Z,48.54
2022-08-05T17:58:09.849Z,48.73
2022-08-05T18:00:44.709Z,49.08
2022-08-05T18:06:11.258Z,50.28
2022-08-05T18:08:44.800Z,51.12
2022-08-05T18:11:24.735Z,51.42
2022-08-05T18:14:07.541Z,50.38
2022-08-05T18:16:46.852Z,50.03
2022-08-05T18:19:22.488Z,50.13
2022-08-05T18:22:07.581Z,50.28
2022-08-05T18:24:39.341Z,50.28
2022-08-05T18:27:18.185Z,50.47
2022-08-05T18:29:53.643Z,50.81
2022-08-05T18:32:28.027Z,51.86
2022-08-05T18:34:56.185Z,53.15
2022-08-05T18:37:33.547Z,52.71
2022-08-05T18:41:50.053Z,52.32
2022-08-05T18:42:49.392Z,52.32
2022-08-05T18:45:19.803Z,52.47
2022-08-05T18:47:51.492Z,52.94
2022-08-05T18:50:45.034Z,53.38
2022-08-05T18:53:22.185Z,54.27
2022-08-05T18:55:50.121Z,54.56
2022-08-05T18:58:18.767Z,53.90
2022-08-05T19:00:55.075Z,53.49
2022-08-05T19:03:53.160Z,53.39
2022-08-05T19:06:18.550Z,53.15
2022-08-05T19:08:49.860Z,53.63
2022-08-05T19:11:27.905Z,53.96
2022-08-05T19:14:01.056Z,54.60
2022-08-05T19:16:47.032Z,53.65
2022-08-05T19:19:14.605Z,53.49
2022-08-05T19:21:41.798Z,53.66
2022-08-05T19:24:12.791Z,53.34
2022-08-05T19:26:54.264Z,53.75
2022-08-05T19:29:24.333Z,54.31
2022-08-05T19:32:03.531Z,55.09
2022-08-05T19:34:31.913Z,54.50
2022-08-05T19:36:59.393Z,54.02
2022-08-05T19:39:28.313Z,53.87
2022-08-05T19:42:06.134Z,53.95
2022-08-05T19:44:44.529Z,54.50
2022-08-05T19:47:15.233Z,55.41
2022-08-05T19:49:48.707Z,56.31
2022-08-05T19:52:30.997Z,55.53
2022-08-05T19:55:08.834Z,54.65
2022-08-05T19:58:14.695Z,54.48
2022-08-05T20:00:36.664Z,54.84
2022-08-05T20:03:09.110Z,55.13
2022-08-05T20:05:50.254Z,56.16
2022-08-05T20:08:19.544Z,55.36
2022-08-05T20:10:49.664Z,54.76
2022-08-05T20:13:18.041Z,54.78
2022-08-05T20:15:57.865Z,55.08
2022-08-05T20:18:35.937Z,56.11
2022-08-05T20:21:06.754Z,56.56
2022-08-05T20:23:39.633Z,56.34
2022-08-05T20:26:20.530Z,55.62
2022-08-05T20:28:51.143Z,55.28
2022-08-05T20:31:28.756Z,54.92
2022-08-05T20:34:08.903Z,56.53
2022-08-05T20:36:36.630Z,56.79
2022-08-05T20:39:06.536Z,56.51
2022-08-05T20:41:44.639Z,56.06
2022-08-05T20:44:29.047Z,55.97
2022-08-05T20:47:03.433Z,56.73
2022-08-05T20:49:33.293Z,58.23
2022-08-05T20:52:05.445Z,58.60
2022-08-05T20:54:42.673Z,57.89
2022-08-05T20:57:42.383Z,57.03
2022-08-05T21:00:40.637Z,56.47
2022-08-05T21:03:06.916Z,55.96
2022-08-05T21:05:47.654Z,56.36
2022-08-05T21:08:26.930Z,56.84
2022-08-05T21:11:00.922Z,57.15
2022-08-05T21:13:48.485Z,57.17
2022-08-05T21:16:29.793Z,57.18
2022-08-05T21:19:00.377Z,58.27
2022-08-05T21:21:43.827Z,58.21
2022-08-05T21:24:15.739Z,58.75
2022-08-05T21:26:47.371Z,58.21
2022-08-05T21:29:31.549Z,57.83
2022-08-05T21:32:00.800Z,57.90
2022-08-05T21:34:28.398Z,57.74
2022-08-05T21:36:59.053Z,59.05
2022-08-05T21:39:26.785Z,59.92
2022-08-05T21:42:01.565Z,59.25
2022-08-05T21:44:31.012Z,58.09
2022-08-05T21:46:59.884Z,57.78
2022-08-05T21:49:59.450Z,57.54
2022-08-05T21:52:22.736Z,58.86
2022-08-05T21:54:55.290Z,58.84
2022-08-05T21:57:31.406Z,58.01
2022-08-05T22:00:06.250Z,57.31
2022-08-05T22:02:43.492Z,57.48
2022-08-05T22:05:12.150Z,57.85
2022-08-05T22:07:58.417Z,58.10
2022-08-05T22:10:27.569Z,57.55
2022-08-05T22:12:58.805Z,57.71
2022-08-05T22:16:01.499Z,57.68
2022-08-05T22:18:14.765Z,57.83
2022-08-05T22:20:44.122Z,57.52
2022-08-05T22:24:01.105Z,57.12
2022-08-05T22:26:36.041Z,56.73
2022-08-05T22:29:04.672Z,57.03
2022-08-05T22:31:44.846Z,58.07
2022-08-05T22:34:20.104Z,58.44
2022-08-05T22:36:56.487Z,57.94
2022-08-05T22:39:32.593Z,57.19
2022-08-05T22:42:11.632Z,56.72
2022-08-05T22:44:53.635Z,57.24
2022-08-05T22:47:28.915Z,58.62
2022-08-05T22:50:20.363Z,59.15
2022-08-05T22:52:51.303Z,58.45
2022-08-05T22:58:05.947Z,57.01
2022-08-05T23:00:39.038Z,57.24
2022-08-05T23:03:06.312Z,57.13
2022-08-05T23:05:36.198Z,58.03
2022-08-05T23:10:52.044Z,57.80
2022-08-05T23:13:23.254Z,57.00
2022-08-05T23:15:50.513Z,56.86
2022-08-05T23:18:18.174Z,57.86
2022-08-05T23:20:50.195Z,57.94
2022-08-05T23:23:17.388Z,58.41
2022-08-05T23:25:51.089Z,57.64
2022-08-05T23:28:21.101Z,57.17
2022-08-05T23:30:53.322Z,56.92
2022-08-05T23:34:03.245Z,56.82
2022-08-05T23:36:13.454Z,57.61
2022-08-05T23:38:41.786Z,57.98
2022-08-05T23:41:10.863Z,57.58
2022-08-05T23:44:05.642Z,57.02
2022-08-05T23:46:25.327Z,57.24
2022-08-05T23:48:59.182Z,57.51
2022-08-05T23:51:53.428Z,57.60
2022-08-05T23:54:34.184Z,58.24
2022-08-05T23:57:05.154Z,57.86
